createdAt,value
2023-02-02T00:00:14.266Z,1002.97
2023-02-02T00:01:14.243Z,1002.99
2023-02-02T00:02:14.237Z,1002.98
2023-02-02T00:03:14.217Z,1002.98
2023-02-02T00:04:14.297Z,1002.97
2023-02-02T00:05:14.214Z,1003.00
2023-02-02T00:06:14.194Z,1003.06
2023-02-02T00:07:14.164Z,1003.02
2023-02-02T00:08:14.158Z,1003.09
2023-02-02T00:09:14.186Z,1002.98
2023-02-02T00:10:14.135Z,1003.01
2023-02-02T00:11:14.134Z,1003.05
2023-02-02T00:12:14.115Z,1003.14
2023-02-02T00:13:14.105Z,1002.90
2023-02-02T00:14:14.146Z,1002.99
2023-02-02T00:15:14.103Z,1002.97
2023-02-02T00:16:14.092Z,1002.98
2023-02-02T00:17:14.048Z,1002.97
2023-02-02T00:18:14.047Z,1002.95
2023-02-02T00:19:14.033Z,1002.99
2023-02-02T00:20:14.070Z,1002.96
2023-02-02T00:21:14.002Z,1002.99
2023-02-02T00:22:14.000Z,1002.99
2023-02-02T00:23:14.006Z,1003.01
2023-02-02T00:24:13.985Z,1003.02
2023-02-02T00:25:14.004Z,1003.05
2023-02-02T00:26:13.972Z,1003.05
2023-02-02T00:27:13.954Z,1003.01
2023-02-02T00:28:13.947Z,1002.98
2023-02-02T00:29:13.924Z,1002.96
2023-02-02T00:30:13.960Z,1003.02
2023-02-02T00:31:13.963Z,1002.94
2023-02-02T00:32:13.901Z,1002.93
2023-02-02T00:33:13.890Z,1003.00
2023-02-02T00:34:13.890Z,1003.03
2023-02-02T00:35:13.879Z,1002.91
2023-02-02T00:36:13.854Z,1002.91
2023-02-02T00:37:13.834Z,1002.89
2023-02-02T00:38:13.834Z,1002.78
2023-02-02T00:39:13.793Z,1002.75
2023-02-02T00:40:13.858Z,1002.69
2023-02-02T00:41:13.806Z,1002.74
2023-02-02T00:42:13.779Z,1002.82
2023-02-02T00:43:13.768Z,1002.82
2023-02-02T00:44:13.750Z,1002.76
2023-02-02T00:45:13.781Z,1002.80
2023-02-02T00:46:13.733Z,1002.78
2023-02-02T00:47:13.731Z,1002.76
2023-02-02T00:48:13.708Z,1002.77
2023-02-02T00:49:13.705Z,1002.67
2023-02-02T00:50:13.746Z,1002.68
2023-02-02T00:51:13.667Z,1002.73
2023-02-02T00:52:13.667Z,1002.70
2023-02-02T00:53:13.656Z,1002.65
2023-02-02T00:54:13.653Z,1002.58
2023-02-02T00:55:13.669Z,1002.62
2023-02-02T00:56:13.620Z,1002.65
2023-02-02T00:57:13.611Z,1002.70
2023-02-02T00:58:13.614Z,1002.64
2023-02-02T00:59:13.585Z,1002.70
2023-02-02T01:00:13.632Z,1002.63
2023-02-02T01:01:13.592Z,1002.69
2023-02-02T01:02:13.589Z,1002.72
2023-02-02T01:03:13.528Z,1002.70
2023-02-02T01:04:13.524Z,1002.69
2023-02-02T01:05:13.563Z,1002.72
2023-02-02T01:06:13.502Z,1002.75
2023-02-02T01:07:13.506Z,1002.66
2023-02-02T01:08:13.485Z,1002.58
2023-02-02T01:09:13.465Z,1002.57
2023-02-02T01:10:13.494Z,1002.60
2023-02-02T01:11:13.452Z,1002.56
2023-02-02T01:12:13.442Z,1002.60
2023-02-02T01:13:13.422Z,1002.54
2023-02-02T01:14:13.435Z,1002.59
2023-02-02T01:15:13.435Z,1002.59
2023-02-02T01:16:13.442Z,1002.53
2023-02-02T01:17:13.374Z,1002.57
2023-02-02T01:18:13.378Z,1002.64
2023-02-02T01:19:13.351Z,1002.66
2023-02-02T01:20:13.385Z,1002.58
2023-02-02T01:21:13.360Z,1002.57
2023-02-02T01:22:13.326Z,1002.64
2023-02-02T01:23:13.300Z,1002.60
2023-02-02T01:24:13.306Z,1002.62
2023-02-02T01:25:13.426Z,1002.63
2023-02-02T01:26:13.290Z,1002.57
2023-02-02T01:27:13.280Z,1002.63
2023-02-02T01:28:13.251Z,1002.66
2023-02-02T01:29:13.250Z,1002.61
2023-02-02T01:30:13.283Z,1002.63
2023-02-02T01:31:13.267Z,1002.62
2023-02-02T01:32:13.201Z,1002.64
2023-02-02T01:33:13.212Z,1002.60
2023-02-02T01:34:13.181Z,1002.53
2023-02-02T01:35:13.225Z,1002.46
2023-02-02T01:36:13.185Z,1002.57
2023-02-02T01:37:13.144Z,1002.51
2023-02-02T01:38:13.152Z,1002.51
2023-02-02T01:39:13.132Z,1002.55
2023-02-02T01:40:13.188Z,1002.48
2023-02-02T01:41:13.103Z,1002.43
2023-02-02T01:42:13.111Z,1002.45
2023-02-02T01:43:13.080Z,1002.44
2023-02-02T01:44:13.087Z,1002.22
2023-02-02T01:45:13.103Z,1002.40
2023-02-02T01:46:13.114Z,1002.36
2023-02-02T01:47:13.042Z,1002.33
2023-02-02T01:48:13.038Z,1002.33
2023-02-02T01:49:13.027Z,1002.35
2023-02-02T01:50:13.066Z,1002.32
2023-02-02T01:51:13.029Z,1002.31
2023-02-02T01:52:12.984Z,1002.33
2023-02-02T01:53:12.980Z,1002.42
2023-02-02T01:54:12.976Z,1002.45
2023-02-02T01:55:12.988Z,1002.44
2023-02-02T01:56:12.973Z,1002.35
2023-02-02T01:57:12.954Z,1002.33
2023-02-02T01:58:12.932Z,1002.35
2023-02-02T01:59:12.916Z,1002.49
2023-02-02T02:00:12.949Z,1002.38
2023-02-02T02:01:12.925Z,1002.36
2023-02-02T02:02:12.903Z,1002.35
2023-02-02T02:03:12.877Z,1002.31
2023-02-02T02:04:12.860Z,1002.49
2023-02-02T02:05:12.896Z,1002.43
2023-02-02T02:06:12.909Z,1002.47
2023-02-02T02:07:12.830Z,1002.41
2023-02-02T02:08:12.803Z,1002.41
2023-02-02T02:09:12.798Z,1002.41
2023-02-02T02:10:12.828Z,1002.44
2023-02-02T02:11:12.775Z,1002.43
2023-02-02T02:12:12.763Z,1002.38
2023-02-02T02:13:12.748Z,1002.40
2023-02-02T02:14:12.766Z,1002.45
2023-02-02T02:15:12.770Z,1002.41
2023-02-02T02:16:12.755Z,1002.39
2023-02-02T02:17:12.730Z,1002.42
2023-02-02T02:18:12.702Z,1002.42
2023-02-02T02:19:12.679Z,1002.41
2023-02-02T02:20:12.714Z,1002.48
2023-02-02T02:21:12.664Z,1002.40
2023-02-02T02:22:12.649Z,1002.40
2023-02-02T02:23:12.635Z,1002.51
2023-02-02T02:24:12.655Z,1002.43
2023-02-02T02:25:12.650Z,1002.43
2023-02-02T02:26:12.612Z,1002.35
2023-02-02T02:27:12.591Z,1002.41
2023-02-02T02:28:12.593Z,1002.33
2023-02-02T02:29:12.582Z,1002.33
2023-02-02T02:30:12.612Z,1002.32
2023-02-02T02:31:12.675Z,1002.32
2023-02-02T02:32:12.544Z,1002.35
2023-02-02T02:33:12.506Z,1002.34
2023-02-02T02:34:12.498Z,1002.33
2023-02-02T02:35:12.542Z,1002.36
2023-02-02T02:36:12.497Z,1002.31
2023-02-02T02:37:12.466Z,1002.29
2023-02-02T02:38:12.466Z,1002.39
2023-02-02T02:39:12.435Z,1002.30
2023-02-02T02:40:12.487Z,1002.33
2023-02-02T02:41:12.420Z,1002.46
2023-02-02T02:42:12.425Z,1002.39
2023-02-02T02:43:12.432Z,1002.35
2023-02-02T02:44:12.392Z,1002.44
2023-02-02T02:45:12.431Z,1002.38
2023-02-02T02:46:12.417Z,1002.30
2023-02-02T02:47:12.354Z,1002.31
2023-02-02T02:48:12.359Z,1002.28
2023-02-02T02:49:12.328Z,1002.27
2023-02-02T02:50:12.362Z,1002.32
2023-02-02T02:51:12.301Z,1002.41
2023-02-02T02:52:12.326Z,1002.40
2023-02-02T02:53:12.284Z,1002.36
2023-02-02T02:54:12.283Z,1002.42
2023-02-02T02:55:12.314Z,1002.38
2023-02-02T02:56:12.259Z,1002.36
2023-02-02T02:57:12.237Z,1002.39
2023-02-02T02:58:12.239Z,1002.38
2023-02-02T02:59:12.231Z,1002.35
2023-02-02T03:00:12.252Z,1002.37
2023-02-02T03:01:12.279Z,1002.46
2023-02-02T03:02:12.200Z,1002.48
2023-02-02T03:03:12.180Z,1002.43
2023-02-02T03:04:12.158Z,1002.42
2023-02-02T03:05:12.203Z,1002.52
2023-02-02T03:06:12.135Z,1002.53
2023-02-02T03:07:12.124Z,1002.44
2023-02-02T03:08:12.107Z,1002.43
2023-02-02T03:09:12.116Z,1002.47
2023-02-02T03:10:12.112Z,1002.53
2023-02-02T03:11:12.082Z,1002.58
2023-02-02T03:12:12.058Z,1002.55
2023-02-02T03:13:12.049Z,1002.59
2023-02-02T03:14:12.037Z,1002.49
2023-02-02T03:15:12.068Z,1002.56
2023-02-02T03:16:12.097Z,1002.49
2023-02-02T03:17:12.037Z,1002.55
2023-02-02T03:18:12.008Z,1002.45
2023-02-02T03:19:11.995Z,1002.42
2023-02-02T03:20:12.040Z,1002.47
2023-02-02T03:21:11.957Z,1002.44
2023-02-02T03:22:11.934Z,1002.41
2023-02-02T03:23:11.936Z,1002.48
2023-02-02T03:24:11.936Z,1002.53
2023-02-02T03:25:11.966Z,1002.50
2023-02-02T03:26:11.889Z,1002.55
2023-02-02T03:27:11.901Z,1002.64
2023-02-02T03:28:11.902Z,1002.57
2023-02-02T03:29:11.874Z,1002.67
2023-02-02T03:30:11.886Z,1002.59
2023-02-02T03:31:11.972Z,1002.62
2023-02-02T03:32:11.822Z,1002.44
2023-02-02T03:33:11.825Z,1002.53
2023-02-02T03:34:11.816Z,1002.55
2023-02-02T03:35:11.830Z,1002.62
2023-02-02T03:36:11.783Z,1002.59
2023-02-02T03:37:11.781Z,1002.49
2023-02-02T03:38:11.776Z,1002.53
2023-02-02T03:39:11.748Z,1002.60
2023-02-02T03:40:11.792Z,1002.59
2023-02-02T03:41:11.723Z,1002.60
2023-02-02T03:42:11.711Z,1002.53
2023-02-02T03:43:11.711Z,1002.58
2023-02-02T03:44:11.691Z,1002.56
2023-02-02T03:45:11.727Z,1002.61
2023-02-02T03:46:11.692Z,1002.61
2023-02-02T03:47:11.675Z,1002.77
2023-02-02T03:48:11.659Z,1002.59
2023-02-02T03:49:11.639Z,1002.41
2023-02-02T03:50:11.673Z,1002.48
2023-02-02T03:51:11.669Z,1002.60
2023-02-02T03:52:11.600Z,1002.56
2023-02-02T03:53:11.591Z,1002.59
2023-02-02T03:54:11.574Z,1002.63
2023-02-02T03:55:11.620Z,1002.68
2023-02-02T03:56:11.566Z,1002.74
2023-02-02T03:57:11.548Z,1002.71
2023-02-02T03:58:11.547Z,1002.78
2023-02-02T03:59:11.522Z,1002.72
2023-02-02T04:00:11.524Z,1002.82
2023-02-02T04:01:11.498Z,1002.76
2023-02-02T04:02:11.480Z,1002.90
2023-02-02T04:03:11.476Z,1002.86
2023-02-02T04:04:11.471Z,1002.93
2023-02-02T04:05:11.502Z,1002.88
2023-02-02T04:06:11.434Z,1002.95
2023-02-02T04:07:11.429Z,1002.91
2023-02-02T04:08:11.426Z,1003.03
2023-02-02T04:09:11.418Z,1002.95
2023-02-02T04:10:11.431Z,1002.94
2023-02-02T04:11:11.393Z,1003.05
2023-02-02T04:12:11.361Z,1003.14
2023-02-02T04:13:11.342Z,1003.12
2023-02-02T04:14:11.384Z,1003.20
2023-02-02T04:15:11.337Z,1003.20
2023-02-02T04:16:11.424Z,1003.19
2023-02-02T04:17:11.316Z,1003.23
2023-02-02T04:18:11.304Z,1003.31
2023-02-02T04:19:11.286Z,1003.23
2023-02-02T04:20:11.294Z,1003.32
2023-02-02T04:21:11.297Z,1003.30
2023-02-02T04:22:11.265Z,1003.26
2023-02-02T04:23:11.248Z,1003.28
2023-02-02T04:24:11.231Z,1003.25
2023-02-02T04:25:11.217Z,1003.34
2023-02-02T04:26:11.242Z,1003.36
2023-02-02T04:27:11.187Z,1003.22
2023-02-02T04:28:11.191Z,1003.34
2023-02-02T04:29:11.175Z,1003.25
2023-02-02T04:30:11.157Z,1003.30
2023-02-02T04:31:11.347Z,1003.31
2023-02-02T04:32:11.125Z,1003.34
2023-02-02T04:33:11.124Z,1003.35
2023-02-02T04:34:11.108Z,1003.40
2023-02-02T04:35:11.106Z,1003.38
2023-02-02T04:36:11.111Z,1003.14
2023-02-02T04:37:11.072Z,1003.40
2023-02-02T04:38:11.057Z,1003.55
2023-02-02T04:39:11.051Z,1003.54
2023-02-02T04:40:11.040Z,1003.57
2023-02-02T04:41:11.077Z,1003.65
2023-02-02T04:42:11.008Z,1003.65
2023-02-02T04:43:10.992Z,1003.74
2023-02-02T04:44:10.993Z,1003.66
2023-02-02T04:45:10.978Z,1003.79
2023-02-02T04:46:11.056Z,1003.71
2023-02-02T04:47:10.968Z,1003.67
2023-02-02T04:48:10.944Z,1003.69
2023-02-02T04:49:10.933Z,1003.69
2023-02-02T04:50:10.922Z,1003.66
2023-02-02T04:51:10.935Z,1003.68
2023-02-02T04:52:10.922Z,1003.73
2023-02-02T04:53:10.900Z,1003.71
2023-02-02T04:54:10.889Z,1003.78
2023-02-02T04:55:10.892Z,1003.78
2023-02-02T04:56:10.880Z,1003.80
2023-02-02T04:57:10.849Z,1003.75
2023-02-02T04:58:10.842Z,1003.85
2023-02-02T04:59:10.836Z,1003.82
2023-02-02T05:00:10.788Z,1003.75
2023-02-02T05:01:10.902Z,1003.85
2023-02-02T05:02:10.767Z,1003.82
2023-02-02T05:03:10.782Z,1003.81
2023-02-02T05:04:10.805Z,1003.81
2023-02-02T05:05:10.751Z,1003.93
2023-02-02T05:06:10.786Z,1003.90
2023-02-02T05:07:10.735Z,1003.89
2023-02-02T05:08:10.733Z,1003.90
2023-02-02T05:09:10.694Z,1003.87
2023-02-02T05:10:10.699Z,1003.96
2023-02-02T05:11:10.726Z,1004.02
2023-02-02T05:12:10.658Z,1004.01
2023-02-02T05:13:10.666Z,1003.99
2023-02-02T05:14:10.662Z,1004.00
2023-02-02T05:15:10.641Z,1003.98
2023-02-02T05:16:10.681Z,1004.12
2023-02-02T05:17:10.606Z,1004.10
2023-02-02T05:18:10.611Z,1004.12
2023-02-02T05:19:10.614Z,1004.09
2023-02-02T05:20:10.594Z,1004.13
2023-02-02T05:21:10.596Z,1004.12
2023-02-02T05:22:10.554Z,1004.20
2023-02-02T05:23:10.552Z,1004.15
2023-02-02T05:24:10.538Z,1004.14
2023-02-02T05:25:10.517Z,1004.20
2023-02-02T05:26:10.547Z,1004.19
2023-02-02T05:27:10.486Z,1004.25
2023-02-02T05:28:10.471Z,1004.28
2023-02-02T05:29:10.476Z,1004.18
2023-02-02T05:30:10.444Z,1004.22
2023-02-02T05:31:10.572Z,1004.24
2023-02-02T05:32:10.491Z,1004.24
2023-02-02T05:33:10.437Z,1004.27
2023-02-02T05:34:10.438Z,1004.21
2023-02-02T05:35:10.407Z,1004.22
2023-02-02T05:36:10.456Z,1004.22
2023-02-02T05:37:10.421Z,1004.17
2023-02-02T05:38:10.377Z,1004.32
2023-02-02T05:39:10.395Z,1004.24
2023-02-02T05:40:10.341Z,1004.48
2023-02-02T05:41:10.421Z,1004.49
2023-02-02T05:42:10.341Z,1004.41
2023-02-02T05:43:10.313Z,1004.52
2023-02-02T05:44:10.343Z,1004.41
2023-02-02T05:45:10.294Z,1004.40
2023-02-02T05:46:10.417Z,1004.50
2023-02-02T05:47:10.294Z,1004.62
2023-02-02T05:48:10.266Z,1004.59
2023-02-02T05:49:10.263Z,1004.55
2023-02-02T05:50:10.228Z,1004.64
2023-02-02T05:51:10.263Z,1004.56
2023-02-02T05:52:10.209Z,1004.65
2023-02-02T05:53:10.206Z,1004.66
2023-02-02T05:54:10.211Z,1004.67
2023-02-02T05:55:10.166Z,1004.75
2023-02-02T05:56:10.190Z,1004.73
2023-02-02T05:57:10.148Z,1004.67
2023-02-02T05:58:10.146Z,1004.69
2023-02-02T05:59:10.145Z,1004.73
2023-02-02T06:00:10.146Z,1004.79
2023-02-02T06:01:10.194Z,1004.76
2023-02-02T06:02:10.098Z,1004.78
2023-02-02T06:03:10.246Z,1004.82
2023-02-02T06:04:10.108Z,1004.90
2023-02-02T06:05:10.088Z,1004.82
2023-02-02T06:06:10.045Z,1004.88
2023-02-02T06:07:10.088Z,1004.88
2023-02-02T06:08:10.033Z,1004.93
2023-02-02T06:09:10.029Z,1004.91
2023-02-02T06:10:10.010Z,1004.95
2023-02-02T06:11:09.998Z,1005.02
2023-02-02T06:12:10.030Z,1004.97
2023-02-02T06:13:09.969Z,1005.04
2023-02-02T06:14:09.965Z,1005.04
2023-02-02T06:15:09.948Z,1005.02
2023-02-02T06:16:10.005Z,1005.07
2023-02-02T06:17:09.997Z,1004.92
2023-02-02T06:18:09.927Z,1005.09
2023-02-02T06:19:09.933Z,1005.10
2023-02-02T06:20:09.899Z,1005.20
2023-02-02T06:21:09.889Z,1005.16
2023-02-02T06:22:09.956Z,1005.18
2023-02-02T06:23:09.895Z,1005.10
2023-02-02T06:24:09.865Z,1005.22
2023-02-02T06:25:09.849Z,1005.17
2023-02-02T06:26:09.834Z,1005.26
2023-02-02T06:27:09.868Z,1005.30
2023-02-02T06:28:09.791Z,1005.25
2023-02-02T06:29:09.798Z,1005.25
2023-02-02T06:30:09.801Z,1005.25
2023-02-02T06:31:09.877Z,1005.32
2023-02-02T06:32:09.853Z,1005.30
2023-02-02T06:33:09.755Z,1005.33
2023-02-02T06:34:09.752Z,1005.38
2023-02-02T06:35:09.754Z,1005.37
2023-02-02T06:36:09.733Z,1005.43
2023-02-02T06:37:09.742Z,1005.45
2023-02-02T06:38:09.699Z,1005.38
2023-02-02T06:39:09.736Z,1005.34
2023-02-02T06:40:09.683Z,1005.40
2023-02-02T06:41:09.680Z,1005.33
2023-02-02T06:42:20.797Z,1005.42
2023-02-02T06:43:10.632Z,1005.40
2023-02-02T06:44:09.657Z,1005.45
2023-02-02T06:45:09.622Z,1005.42
2023-02-02T06:46:09.665Z,1005.41
2023-02-02T06:47:09.622Z,1005.42
2023-02-02T06:48:09.573Z,1005.47
2023-02-02T06:49:09.594Z,1005.42
2023-02-02T06:50:09.586Z,1005.42
2023-02-02T06:51:09.666Z,1005.45
2023-02-02T06:52:09.575Z,1005.42
2023-02-02T06:53:09.504Z,1005.47
2023-02-02T06:54:09.538Z,1005.51
2023-02-02T06:55:09.505Z,1005.50
2023-02-02T06:56:09.487Z,1005.47
2023-02-02T06:57:09.543Z,1005.60
2023-02-02T06:58:09.458Z,1005.56
2023-02-02T06:59:09.474Z,1005.56
2023-02-02T07:00:09.438Z,1005.64
2023-02-02T07:01:09.495Z,1005.64
2023-02-02T07:02:09.468Z,1005.65
2023-02-02T07:03:09.408Z,1005.66
2023-02-02T07:04:09.407Z,1005.70
2023-02-02T07:05:09.383Z,1005.74
2023-02-02T07:06:09.370Z,1005.78
2023-02-02T07:07:09.418Z,1005.81
2023-02-02T07:08:09.403Z,1005.83
2023-02-02T07:09:09.392Z,1005.85
2023-02-02T07:10:09.325Z,1005.82
2023-02-02T07:11:15.208Z,1005.86
2023-02-02T07:12:10.341Z,1005.92
2023-02-02T07:13:09.303Z,1005.88
2023-02-02T07:14:09.283Z,1005.94
2023-02-02T07:15:09.289Z,1005.86
2023-02-02T07:16:09.366Z,1005.92
2023-02-02T07:17:09.292Z,1005.96
2023-02-02T07:18:09.332Z,1006.01
2023-02-02T07:19:09.221Z,1006.02
2023-02-02T07:20:09.206Z,1006.06
2023-02-02T07:21:09.201Z,1006.00
2023-02-02T07:22:09.237Z,1006.08
2023-02-02T07:23:09.188Z,1006.06
2023-02-02T07:24:09.179Z,1006.11
2023-02-02T07:25:09.142Z,1006.12
2023-02-02T07:26:09.146Z,1006.17
2023-02-02T07:27:09.132Z,1006.14
2023-02-02T07:28:09.188Z,1006.26
2023-02-02T07:29:09.131Z,1006.20
2023-02-02T07:30:09.116Z,1006.26
2023-02-02T07:31:09.161Z,1006.24
2023-02-02T07:32:09.075Z,1006.25
2023-02-02T07:33:09.113Z,1006.32
2023-02-02T07:34:09.056Z,1006.20
2023-02-02T07:35:09.051Z,1006.35
2023-02-02T07:36:09.055Z,1006.37
2023-02-02T07:37:09.027Z,1006.30
2023-02-02T07:38:09.022Z,1006.37
2023-02-02T07:39:08.997Z,1006.44
2023-02-02T07:40:08.978Z,1006.39
2023-02-02T07:41:09.077Z,1006.45
2023-02-02T07:42:08.995Z,1006.48
2023-02-02T07:43:08.999Z,1006.50
2023-02-02T07:44:08.944Z,1006.50
2023-02-02T07:45:26.811Z,1006.47
2023-02-02T07:46:10.052Z,1006.47
2023-02-02T07:47:08.895Z,1006.42
2023-02-02T07:48:08.891Z,1006.44
2023-02-02T07:49:08.957Z,1006.41
2023-02-02T07:50:08.885Z,1006.59
2023-02-02T07:51:08.880Z,1006.55
2023-02-02T07:52:08.851Z,1006.56
2023-02-02T07:53:08.863Z,1006.54
2023-02-02T07:54:08.877Z,1006.58
2023-02-02T07:55:14.847Z,1006.58
2023-02-02T07:56:09.800Z,1006.58
2023-02-02T07:57:08.786Z,1006.66
2023-02-02T07:58:08.796Z,1006.63
2023-02-02T07:59:08.828Z,1006.62
2023-02-02T08:00:08.763Z,1006.58
2023-02-02T08:01:08.780Z,1006.60
2023-02-02T08:02:08.830Z,1006.66
2023-02-02T08:03:08.767Z,1006.66
2023-02-02T08:04:08.751Z,1006.61
2023-02-02T08:05:08.699Z,1006.68
2023-02-02T08:06:08.657Z,1006.66
2023-02-02T08:07:08.677Z,1006.71
2023-02-02T08:08:08.648Z,1006.72
2023-02-02T08:09:08.702Z,1006.74
2023-02-02T08:10:08.655Z,1006.75
2023-02-02T08:11:08.643Z,1006.65
2023-02-02T08:12:08.630Z,1006.80
2023-02-02T08:13:08.585Z,1006.82
2023-02-02T08:14:08.646Z,1006.80
2023-02-02T08:15:08.603Z,1006.79
2023-02-02T08:16:08.634Z,1006.79
2023-02-02T08:17:08.553Z,1006.79
2023-02-02T08:18:08.548Z,1006.79
2023-02-02T08:19:08.559Z,1006.87
2023-02-02T08:20:08.512Z,1006.86
2023-02-02T08:21:08.513Z,1006.87
2023-02-02T08:22:08.511Z,1006.88
2023-02-02T08:23:08.494Z,1006.90
2023-02-02T08:24:08.503Z,1006.91
2023-02-02T08:25:08.444Z,1006.88
2023-02-02T08:26:08.473Z,1006.96
2023-02-02T08:27:08.443Z,1006.97
2023-02-02T08:28:08.433Z,1006.98
2023-02-02T08:29:08.477Z,1006.96
2023-02-02T08:30:08.407Z,1006.97
2023-02-02T08:31:08.457Z,1006.92
2023-02-02T08:32:08.381Z,1006.88
2023-02-02T08:33:08.406Z,1006.98
2023-02-02T08:34:08.423Z,1007.07
2023-02-02T08:35:08.345Z,1007.03
2023-02-02T08:36:08.318Z,1007.09
2023-02-02T08:37:08.327Z,1007.08
2023-02-02T08:38:08.320Z,1007.03
2023-02-02T08:39:08.347Z,1007.00
2023-02-02T08:40:08.385Z,1007.08
2023-02-02T08:41:08.293Z,1007.05
2023-02-02T08:42:08.271Z,1007.15
2023-02-02T08:43:10.605Z,1007.14
2023-02-02T08:44:10.894Z,1007.08
2023-02-02T08:46:09.296Z,1007.11
2023-02-02T08:46:13.589Z,1007.05
2023-02-02T08:47:08.364Z,1007.14
2023-02-02T08:48:12.120Z,1007.08
2023-02-02T08:49:08.233Z,1007.03
2023-02-02T08:50:08.170Z,1007.18
2023-02-02T08:51:08.167Z,1007.14
2023-02-02T08:52:08.158Z,1007.13
2023-02-02T08:53:08.165Z,1007.11
2023-02-02T08:54:08.210Z,1007.18
2023-02-02T08:55:08.144Z,1007.16
2023-02-02T08:56:08.122Z,1007.08
2023-02-02T08:57:08.094Z,1007.14
2023-02-02T08:58:08.074Z,1007.23
2023-02-02T08:59:08.081Z,1007.22
2023-02-02T09:00:08.090Z,1007.17
2023-02-02T09:01:08.057Z,1007.20
2023-02-02T09:02:08.069Z,1007.19
2023-02-02T09:03:07.998Z,1007.26
2023-02-02T09:04:08.017Z,1007.22
2023-02-02T09:05:08.017Z,1007.23
2023-02-02T09:06:07.985Z,1007.22
2023-02-02T09:07:07.992Z,1007.25
2023-02-02T09:08:07.962Z,1007.26
2023-02-02T09:09:07.969Z,1007.20
2023-02-02T09:10:07.989Z,1007.18
2023-02-02T09:11:07.966Z,1007.21
2023-02-02T09:12:07.947Z,1007.25
2023-02-02T09:13:07.927Z,1007.24
2023-02-02T09:14:07.920Z,1007.22
2023-02-02T09:15:07.917Z,1007.30
2023-02-02T09:16:07.919Z,1007.21
2023-02-02T09:17:07.855Z,1007.26
2023-02-02T09:18:07.889Z,1007.19
2023-02-02T09:19:07.835Z,1007.31
2023-02-02T09:20:07.861Z,1007.35
2023-02-02T09:21:07.832Z,1007.38
2023-02-02T09:22:07.797Z,1007.35
2023-02-02T09:23:07.797Z,1007.40
2023-02-02T09:24:07.790Z,1007.47
2023-02-02T09:25:07.799Z,1007.47
2023-02-02T09:26:07.771Z,1007.61
2023-02-02T09:27:07.756Z,1007.67
2023-02-02T09:28:07.733Z,1007.75
2023-02-02T09:29:07.732Z,1007.73
2023-02-02T09:30:07.748Z,1007.74
2023-02-02T09:31:07.702Z,1007.66
2023-02-02T09:32:07.729Z,1007.76
2023-02-02T09:33:07.678Z,1007.78
2023-02-02T09:34:07.660Z,1007.69
2023-02-02T09:35:07.701Z,1007.77
2023-02-02T09:36:07.659Z,1007.76
2023-02-02T09:37:07.614Z,1007.73
2023-02-02T09:38:07.637Z,1007.78
2023-02-02T09:39:07.619Z,1007.77
2023-02-02T09:40:07.656Z,1007.75
2023-02-02T09:41:07.829Z,1007.81
2023-02-02T09:42:07.577Z,1007.82
2023-02-02T09:43:07.554Z,1007.82
2023-02-02T09:44:07.565Z,1007.83
2023-02-02T09:45:07.604Z,1007.82
2023-02-02T09:46:07.587Z,1007.80
2023-02-02T09:47:07.524Z,1007.86
2023-02-02T09:48:07.524Z,1007.81
2023-02-02T09:49:07.488Z,1007.80
2023-02-02T09:50:07.555Z,1007.84
2023-02-02T09:51:07.469Z,1007.79
2023-02-02T09:52:07.455Z,1007.89
2023-02-02T09:53:08.030Z,1007.91
2023-02-02T09:54:07.460Z,1007.85
2023-02-02T09:55:07.458Z,1007.90
2023-02-02T09:56:07.414Z,1007.91
2023-02-02T09:57:07.425Z,1007.95
2023-02-02T09:58:07.398Z,1007.90
2023-02-02T09:59:19.404Z,1007.96
2023-02-02T10:00:08.399Z,1007.89
2023-02-02T10:01:07.403Z,1007.93
2023-02-02T10:02:07.350Z,1007.94
2023-02-02T10:03:07.330Z,1008.00
2023-02-02T10:04:07.486Z,1007.92
2023-02-02T10:05:08.357Z,1008.00
2023-02-02T10:06:07.285Z,1007.98
2023-02-02T10:07:07.296Z,1008.03
2023-02-02T10:08:07.316Z,1008.08
2023-02-02T10:09:07.273Z,1008.05
2023-02-02T10:10:07.316Z,1008.09
2023-02-02T10:11:07.258Z,1008.02
2023-02-02T10:12:07.246Z,1008.06
2023-02-02T10:13:07.192Z,1008.09
2023-02-02T10:14:07.226Z,1008.05
2023-02-02T10:15:07.208Z,1007.99
2023-02-02T10:16:07.261Z,1008.02
2023-02-02T10:17:07.186Z,1008.08
2023-02-02T10:18:07.190Z,1008.05
2023-02-02T10:19:07.177Z,1008.04
2023-02-02T10:20:07.173Z,1008.01
2023-02-02T10:21:07.109Z,1008.03
2023-02-02T10:22:07.131Z,1008.11
2023-02-02T10:23:07.130Z,1008.03
2023-02-02T10:24:07.106Z,1007.94
2023-02-02T10:25:07.120Z,1007.92
2023-02-02T10:26:07.091Z,1008.09
2023-02-02T10:27:07.114Z,1008.03
2023-02-02T10:28:07.079Z,1008.00
2023-02-02T10:29:07.055Z,1007.94
2023-02-02T10:30:07.059Z,1008.01
2023-02-02T10:31:07.058Z,1007.97
2023-02-02T10:32:07.039Z,1007.91
2023-02-02T10:33:06.990Z,1007.86
2023-02-02T10:34:07.031Z,1007.81
2023-02-02T10:35:16.180Z,1007.88
2023-02-02T10:36:07.962Z,1007.91
2023-02-02T10:37:07.000Z,1007.88
2023-02-02T10:38:07.490Z,1007.92
2023-02-02T10:39:06.918Z,1008.01
2023-02-02T10:40:06.980Z,1007.90
2023-02-02T10:41:06.902Z,1007.92
2023-02-02T10:42:06.896Z,1008.01
2023-02-02T10:43:06.857Z,1007.96
2023-02-02T10:44:06.885Z,1007.98
2023-02-02T10:45:06.890Z,1007.92
2023-02-02T10:46:06.871Z,1007.96
2023-02-02T10:47:06.837Z,1008.00
2023-02-02T10:48:06.831Z,1007.92
2023-02-02T10:49:06.819Z,1007.91
2023-02-02T10:50:06.897Z,1007.98
2023-02-02T10:51:06.805Z,1007.95
2023-02-02T10:52:06.763Z,1007.93
2023-02-02T10:53:06.753Z,1008.02
2023-02-02T10:54:06.753Z,1007.86
2023-02-02T10:55:06.787Z,1007.98
2023-02-02T10:56:06.766Z,1007.97
2023-02-02T10:57:06.709Z,1008.00
2023-02-02T10:58:06.698Z,1007.98
2023-02-02T10:59:06.680Z,1008.01
2023-02-02T11:00:06.698Z,1008.06
2023-02-02T11:01:06.697Z,1008.05
2023-02-02T11:02:20.470Z,1008.06
2023-02-02T11:03:07.667Z,1008.02
2023-02-02T11:04:06.739Z,1008.07
2023-02-02T11:05:06.656Z,1008.11
2023-02-02T11:06:06.613Z,1008.08
2023-02-02T11:07:06.593Z,1008.15
2023-02-02T11:08:06.591Z,1008.08
2023-02-02T11:09:06.577Z,1008.14
2023-02-02T11:10:06.635Z,1008.20
2023-02-02T11:11:06.561Z,1008.15
2023-02-02T11:12:06.555Z,1008.19
2023-02-02T11:13:06.533Z,1008.09
2023-02-02T11:14:06.527Z,1008.08
2023-02-02T11:15:06.533Z,1008.11
2023-02-02T11:16:06.547Z,1008.01
2023-02-02T11:17:06.489Z,1008.14
2023-02-02T11:18:06.470Z,1008.21
2023-02-02T11:19:06.481Z,1008.18
2023-02-02T11:20:06.495Z,1008.18
2023-02-02T11:21:06.432Z,1008.13
2023-02-02T11:22:06.440Z,1008.20
2023-02-02T11:23:06.419Z,1008.20
2023-02-02T11:24:06.416Z,1008.19
2023-02-02T11:25:06.374Z,1008.22
2023-02-02T11:26:06.448Z,1008.23
2023-02-02T11:27:06.361Z,1008.18
2023-02-02T11:28:06.339Z,1008.22
2023-02-02T11:29:06.329Z,1008.29
2023-02-02T11:30:06.313Z,1008.27
2023-02-02T11:31:06.442Z,1008.34
2023-02-02T11:32:06.315Z,1008.30
2023-02-02T11:33:06.299Z,1008.28
2023-02-02T11:34:06.289Z,1008.35
2023-02-02T11:35:06.304Z,1008.42
2023-02-02T11:36:06.316Z,1008.39
2023-02-02T11:37:06.265Z,1008.30
2023-02-02T11:38:06.233Z,1008.38
2023-02-02T11:39:06.242Z,1008.42
2023-02-02T11:40:06.221Z,1008.35
2023-02-02T11:41:06.247Z,1008.37
2023-02-02T11:42:06.213Z,1008.41
2023-02-02T11:43:06.169Z,1008.51
2023-02-02T11:44:06.173Z,1008.58
2023-02-02T11:45:06.164Z,1008.45
2023-02-02T11:46:06.272Z,1008.47
2023-02-02T11:47:06.152Z,1008.50
2023-02-02T11:48:06.104Z,1008.47
2023-02-02T11:49:06.112Z,1008.59
2023-02-02T11:50:06.097Z,1008.55
2023-02-02T11:51:06.165Z,1008.46
2023-02-02T11:52:06.677Z,1008.52
2023-02-02T11:53:06.076Z,1008.47
2023-02-02T11:54:06.074Z,1008.47
2023-02-02T11:55:06.104Z,1008.55
2023-02-02T11:56:06.032Z,1008.46
2023-02-02T11:57:06.011Z,1008.53
2023-02-02T11:58:05.972Z,1008.58
2023-02-02T11:59:06.015Z,1008.54
2023-02-02T12:00:05.981Z,1008.58
2023-02-02T12:01:05.985Z,1008.54
2023-02-02T12:02:05.983Z,1008.54
2023-02-02T12:03:05.973Z,1008.66
2023-02-02T12:04:05.941Z,1008.60
2023-02-02T12:05:05.932Z,1008.54